Cabot, Vermont
Current Conditions -  °F | °C
As of 6:02 PM on Friday 28 Nov 2014 (Local Time) from KMVL Reporting Station
Light Snow Light Snow  
Wind Chill: 20°   Ceiling: 2100
Heat Index: 20°   Visibility: 2.5mi
Dew Point: 16°   Wind: 0mph
Humidity: 85%   Direction: NA
Pressure: 30.14"   Gusts: NA
Location:  44.4°N, 72.31°W
Report Text: KMVL 282302Z AUTO 00000KT 2 1/2SM -SN BR FEW008 OVC021 M07/M09 A3014 RMK AO2 P0000 T10671089 TSNO
Loading
Personal Weather Stations






























Interactive Weather Map New forecast layout! Learn more

10-Day Weather Forecast

Advertisements
Track Severe Weather on mobile